sensor_id;sensor_type;location;lat;lon;timestamp;P1;durP1;ratioP1;P2;durP2;ratioP2
19161;SDS011;9713;48.140;11.530;2024-03-22T00:01:37;25.10;;;15.40;;
19161;SDS011;9713;48.140;11.530;2024-03-22T00:05:19;23.67;;;15.30;;
19161;SDS011;9713;48.140;11.530;2024-03-22T00:09:02;26.07;;;15.57;;
19161;SDS011;9713;48.140;11.530;2024-03-22T00:12:43;27.67;;;15.50;;
19161;SDS011;9713;48.140;11.530;2024-03-22T00:16:27;23.27;;;14.77;;
19161;SDS011;9713;48.140;11.530;2024-03-22T00:20:09;25.20;;;15.23;;
19161;SDS011;9713;48.140;11.530;2024-03-22T00:23:51;26.70;;;15.83;;
19161;SDS011;9713;48.140;11.530;2024-03-22T00:27:33;25.40;;;15.60;;
19161;SDS011;9713;48.140;11.530;2024-03-22T00:31:15;23.57;;;15.50;;
19161;SDS011;9713;48.140;11.530;2024-03-22T00:34:59;28.77;;;15.80;;
19161;SDS011;9713;48.140;11.530;2024-03-22T00:38:41;28.13;;;15.60;;
19161;SDS011;9713;48.140;11.530;2024-03-22T00:42:23;26.83;;;15.67;;
19161;SDS011;9713;48.140;11.530;2024-03-22T00:46:04;24.50;;;15.13;;
19161;SDS011;9713;48.140;11.530;2024-03-22T00:49:46;27.13;;;15.67;;
19161;SDS011;9713;48.140;11.530;2024-03-22T00:53:28;27.00;;;15.97;;
19161;SDS011;9713;48.140;11.530;2024-03-22T00:57:10;25.07;;;15.40;;
19161;SDS011;9713;48.140;11.530;2024-03-22T01:00:51;25.63;;;15.73;;
19161;SDS011;9713;48.140;11.530;2024-03-22T01:04:33;28.03;;;15.77;;
19161;SDS011;9713;48.140;11.530;2024-03-22T01:08:15;26.03;;;14.87;;
19161;SDS011;9713;48.140;11.530;2024-03-22T01:11:58;28.13;;;15.90;;
19161;SDS011;9713;48.140;11.530;2024-03-22T01:15:40;24.33;;;15.10;;
19161;SDS011;9713;48.140;11.530;2024-03-22T01:19:22;25.77;;;15.97;;
19161;SDS011;9713;48.140;11.530;2024-03-22T01:23:03;26.50;;;15.33;;
19161;SDS011;9713;48.140;11.530;2024-03-22T01:26:45;23.97;;;15.60;;
19161;SDS011;9713;48.140;11.530;2024-03-22T01:30:28;24.30;;;14.70;;
19161;SDS011;9713;48.140;11.530;2024-03-22T01:34:10;26.17;;;15.73;;
19161;SDS011;9713;48.140;11.530;2024-03-22T01:37:52;25.13;;;15.57;;
19161;SDS011;9713;48.140;11.530;2024-03-22T01:41:33;25.90;;;15.90;;
19161;SDS011;9713;48.140;11.530;2024-03-22T01:45:15;27.83;;;15.10;;
19161;SDS011;9713;48.140;11.530;2024-03-22T01:48:58;27.73;;;15.73;;
19161;SDS011;9713;48.140;11.530;2024-03-22T01:52:41;26.67;;;15.53;;
19161;SDS011;9713;48.140;11.530;2024-03-22T01:56:23;26.43;;;15.77;;
19161;SDS011;9713;48.140;11.530;2024-03-22T02:00:06;25.97;;;15.77;;
19161;SDS011;9713;48.140;11.530;2024-03-22T02:03:54;27.73;;;16.03;;
19161;SDS011;9713;48.140;11.530;2024-03-22T02:07:37;26.30;;;16.10;;
19161;SDS011;9713;48.140;11.530;2024-03-22T02:11:19;25.90;;;15.60;;
19161;SDS011;9713;48.140;11.530;2024-03-22T02:15:01;28.20;;;16.50;;
19161;SDS011;9713;48.140;11.530;2024-03-22T02:18:44;28.70;;;15.77;;
19161;SDS011;9713;48.140;11.530;2024-03-22T02:22:26;28.23;;;15.80;;
19161;SDS011;9713;48.140;11.530;2024-03-22T02:26:08;26.53;;;16.40;;
19161;SDS011;9713;48.140;11.530;2024-03-22T02:29:50;27.40;;;16.17;;
19161;SDS011;9713;48.140;11.530;2024-03-22T02:33:32;31.77;;;17.00;;
19161;SDS011;9713;48.140;11.530;2024-03-22T02:37:14;28.53;;;16.00;;
19161;SDS011;9713;48.140;11.530;2024-03-22T02:40:57;28.43;;;16.40;;
19161;SDS011;9713;48.140;11.530;2024-03-22T02:44:41;29.00;;;16.93;;
19161;SDS011;9713;48.140;11.530;2024-03-22T02:48:23;29.03;;;16.53;;
19161;SDS011;9713;48.140;11.530;2024-03-22T02:52:05;27.07;;;16.20;;
19161;SDS011;9713;48.140;11.530;2024-03-22T02:55:47;27.17;;;15.80;;
19161;SDS011;9713;48.140;11.530;2024-03-22T02:59:29;31.10;;;17.67;;
19161;SDS011;9713;48.140;11.530;2024-03-22T03:03:13;27.23;;;15.97;;
19161;SDS011;9713;48.140;11.530;2024-03-22T03:06:54;28.67;;;16.20;;
19161;SDS011;9713;48.140;11.530;2024-03-22T03:10:36;29.83;;;16.27;;
19161;SDS011;9713;48.140;11.530;2024-03-22T03:14:17;28.10;;;15.90;;
19161;SDS011;9713;48.140;11.530;2024-03-22T03:17:59;29.87;;;16.67;;
19161;SDS011;9713;48.140;11.530;2024-03-22T03:21:42;27.03;;;15.30;;
19161;SDS011;9713;48.140;11.530;2024-03-22T03:25:24;27.47;;;15.50;;
19161;SDS011;9713;48.140;11.530;2024-03-22T03:29:05;26.93;;;16.37;;
19161;SDS011;9713;48.140;11.530;2024-03-22T03:32:46;27.77;;;15.70;;
19161;SDS011;9713;48.140;11.530;2024-03-22T03:36:28;26.87;;;15.30;;
19161;SDS011;9713;48.140;11.530;2024-03-22T03:40:12;24.87;;;14.87;;
19161;SDS011;9713;48.140;11.530;2024-03-22T03:43:53;28.33;;;15.17;;
19161;SDS011;9713;48.140;11.530;2024-03-22T03:47:35;27.87;;;15.73;;
19161;SDS011;9713;48.140;11.530;2024-03-22T03:51:17;24.17;;;14.13;;
19161;SDS011;9713;48.140;11.530;2024-03-22T03:54:59;26.03;;;15.33;;
19161;SDS011;9713;48.140;11.530;2024-03-22T03:58:42;24.67;;;14.67;;
19161;SDS011;9713;48.140;11.530;2024-03-22T04:02:24;25.23;;;14.50;;
19161;SDS011;9713;48.140;11.530;2024-03-22T04:06:05;27.50;;;15.03;;
19161;SDS011;9713;48.140;11.530;2024-03-22T04:09:47;27.77;;;15.40;;
19161;SDS011;9713;48.140;11.530;2024-03-22T04:13:29;25.60;;;15.00;;
19161;SDS011;9713;48.140;11.530;2024-03-22T04:17:12;26.33;;;15.30;;
19161;SDS011;9713;48.140;11.530;2024-03-22T04:20:55;26.20;;;14.63;;
19161;SDS011;9713;48.140;11.530;2024-03-22T04:24:37;27.83;;;15.57;;
19161;SDS011;9713;48.140;11.530;2024-03-22T04:28:19;27.53;;;14.97;;
19161;SDS011;9713;48.140;11.530;2024-03-22T04:32:01;29.53;;;15.23;;
19161;SDS011;9713;48.140;11.530;2024-03-22T04:35:46;26.67;;;14.87;;
19161;SDS011;9713;48.140;11.530;2024-03-22T04:39:27;26.80;;;15.33;;
19161;SDS011;9713;48.140;11.530;2024-03-22T04:43:09;31.00;;;16.10;;
19161;SDS011;9713;48.140;11.530;2024-03-22T04:46:51;26.17;;;15.67;;
19161;SDS011;9713;48.140;11.530;2024-03-22T04:50:33;29.57;;;15.47;;
19161;SDS011;9713;48.140;11.530;2024-03-22T04:54:17;25.53;;;14.53;;
19161;SDS011;9713;48.140;11.530;2024-03-22T04:57:59;23.80;;;14.10;;
19161;SDS011;9713;48.140;11.530;2024-03-22T05:01:41;24.13;;;15.00;;
19161;SDS011;9713;48.140;11.530;2024-03-22T05:05:24;25.80;;;14.80;;
19161;SDS011;9713;48.140;11.530;2024-03-22T05:09:06;24.97;;;14.17;;
19161;SDS011;9713;48.140;11.530;2024-03-22T05:12:52;26.13;;;14.50;;
19161;SDS011;9713;48.140;11.530;2024-03-22T05:16:32;25.73;;;14.50;;
19161;SDS011;9713;48.140;11.530;2024-03-22T05:20:14;23.70;;;13.70;;
19161;SDS011;9713;48.140;11.530;2024-03-22T05:23:56;22.93;;;12.93;;
19161;SDS011;9713;48.140;11.530;2024-03-22T05:27:38;21.90;;;13.13;;
19161;SDS011;9713;48.140;11.530;2024-03-22T05:31:22;22.63;;;13.97;;
19161;SDS011;9713;48.140;11.530;2024-03-22T05:35:04;22.13;;;13.37;;
19161;SDS011;9713;48.140;11.530;2024-03-22T05:38:45;22.07;;;13.10;;
19161;SDS011;9713;48.140;11.530;2024-03-22T05:42:28;20.00;;;12.57;;
19161;SDS011;9713;48.140;11.530;2024-03-22T05:46:10;20.57;;;13.13;;
19161;SDS011;9713;48.140;11.530;2024-03-22T05:49:54;22.50;;;12.33;;
19161;SDS011;9713;48.140;11.530;2024-03-22T05:53:35;20.70;;;12.20;;
19161;SDS011;9713;48.140;11.530;2024-03-22T05:57:18;25.10;;;12.87;;
19161;SDS011;9713;48.140;11.530;2024-03-22T06:01:00;20.57;;;11.50;;
19161;SDS011;9713;48.140;11.530;2024-03-22T06:04:41;20.37;;;11.97;;
19161;SDS011;9713;48.140;11.530;2024-03-22T06:08:25;17.03;;;11.03;;
19161;SDS011;9713;48.140;11.530;2024-03-22T06:12:06;17.73;;;10.70;;
19161;SDS011;9713;48.140;11.530;2024-03-22T06:15:48;17.90;;;10.90;;
19161;SDS011;9713;48.140;11.530;2024-03-22T06:19:30;19.70;;;11.73;;
19161;SDS011;9713;48.140;11.530;2024-03-22T06:23:12;18.43;;;11.67;;
19161;SDS011;9713;48.140;11.530;2024-03-22T06:26:56;20.67;;;11.73;;
19161;SDS011;9713;48.140;11.530;2024-03-22T06:30:37;18.40;;;11.37;;
19161;SDS011;9713;48.140;11.530;2024-03-22T06:34:19;18.63;;;11.27;;
19161;SDS011;9713;48.140;11.530;2024-03-22T06:38:02;17.40;;;10.33;;
19161;SDS011;9713;48.140;11.530;2024-03-22T06:41:44;20.37;;;12.03;;
19161;SDS011;9713;48.140;11.530;2024-03-22T06:45:28;18.73;;;11.33;;
19161;SDS011;9713;48.140;11.530;2024-03-22T06:49:09;18.70;;;11.93;;
19161;SDS011;9713;48.140;11.530;2024-03-22T06:52:51;19.50;;;10.40;;
19161;SDS011;9713;48.140;11.530;2024-03-22T06:56:33;19.87;;;11.17;;
19161;SDS011;9713;48.140;11.530;2024-03-22T07:00:16;16.70;;;11.40;;
19161;SDS011;9713;48.140;11.530;2024-03-22T07:03:59;16.20;;;10.73;;
19161;SDS011;9713;48.140;11.530;2024-03-22T07:07:41;18.47;;;11.33;;
19161;SDS011;9713;48.140;11.530;2024-03-22T07:11:23;17.60;;;10.77;;
19161;SDS011;9713;48.140;11.530;2024-03-22T07:15:06;19.30;;;10.40;;
19161;SDS011;9713;48.140;11.530;2024-03-22T07:18:49;17.10;;;10.40;;
19161;SDS011;9713;48.140;11.530;2024-03-22T07:22:32;18.90;;;10.17;;
19161;SDS011;9713;48.140;11.530;2024-03-22T07:26:14;17.47;;;10.83;;
19161;SDS011;9713;48.140;11.530;2024-03-22T07:29:56;17.23;;;10.20;;
19161;SDS011;9713;48.140;11.530;2024-03-22T07:33:39;15.77;;;9.40;;
19161;SDS011;9713;48.140;11.530;2024-03-22T07:37:21;16.30;;;9.10;;
19161;SDS011;9713;48.140;11.530;2024-03-22T07:41:07;15.30;;;8.97;;
19161;SDS011;9713;48.140;11.530;2024-03-22T07:44:47;15.50;;;9.57;;
19161;SDS011;9713;48.140;11.530;2024-03-22T07:48:29;16.70;;;10.07;;
19161;SDS011;9713;48.140;11.530;2024-03-22T07:52:11;15.07;;;8.70;;
19161;SDS011;9713;48.140;11.530;2024-03-22T07:55:54;11.83;;;8.73;;
19161;SDS011;9713;48.140;11.530;2024-03-22T07:59:37;12.87;;;8.53;;
19161;SDS011;9713;48.140;11.530;2024-03-22T08:03:19;12.00;;;8.17;;
19161;SDS011;9713;48.140;11.530;2024-03-22T08:07:01;13.03;;;8.20;;
19161;SDS011;9713;48.140;11.530;2024-03-22T08:10:43;12.43;;;7.97;;
19161;SDS011;9713;48.140;11.530;2024-03-22T08:14:25;13.70;;;8.20;;
19161;SDS011;9713;48.140;11.530;2024-03-22T08:18:08;14.20;;;8.60;;
19161;SDS011;9713;48.140;11.530;2024-03-22T08:21:50;10.87;;;7.73;;
19161;SDS011;9713;48.140;11.530;2024-03-22T08:25:32;10.87;;;7.73;;
19161;SDS011;9713;48.140;11.530;2024-03-22T08:29:14;10.10;;;7.20;;
19161;SDS011;9713;48.140;11.530;2024-03-22T08:32:55;11.00;;;6.90;;
19161;SDS011;9713;48.140;11.530;2024-03-22T08:36:38;11.23;;;7.00;;
19161;SDS011;9713;48.140;11.530;2024-03-22T08:40:20;8.40;;;5.97;;
19161;SDS011;9713;48.140;11.530;2024-03-22T08:44:01;9.07;;;6.20;;
19161;SDS011;9713;48.140;11.530;2024-03-22T08:47:43;10.70;;;6.23;;
19161;SDS011;9713;48.140;11.530;2024-03-22T08:51:26;9.13;;;5.50;;
19161;SDS011;9713;48.140;11.530;2024-03-22T08:55:09;10.10;;;5.47;;
19161;SDS011;9713;48.140;11.530;2024-03-22T08:58:52;8.97;;;5.77;;
19161;SDS011;9713;48.140;11.530;2024-03-22T09:02:33;10.77;;;5.70;;
19161;SDS011;9713;48.140;11.530;2024-03-22T09:06:15;8.60;;;5.83;;
19161;SDS011;9713;48.140;11.530;2024-03-22T09:09:56;9.87;;;5.80;;
19161;SDS011;9713;48.140;11.530;2024-03-22T09:13:39;10.77;;;5.97;;
19161;SDS011;9713;48.140;11.530;2024-03-22T09:17:21;10.33;;;5.53;;
19161;SDS011;9713;48.140;11.530;2024-03-22T09:21:03;8.00;;;6.20;;
19161;SDS011;9713;48.140;11.530;2024-03-22T09:24:45;8.00;;;5.37;;
19161;SDS011;9713;48.140;11.530;2024-03-22T09:28:27;7.97;;;5.03;;
19161;SDS011;9713;48.140;11.530;2024-03-22T09:32:09;9.00;;;5.30;;
19161;SDS011;9713;48.140;11.530;2024-03-22T09:35:51;10.50;;;5.17;;
19161;SDS011;9713;48.140;11.530;2024-03-22T09:39:34;12.27;;;5.90;;
19161;SDS011;9713;48.140;11.530;2024-03-22T09:43:16;11.13;;;4.97;;
19161;SDS011;9713;48.140;11.530;2024-03-22T09:46:59;7.67;;;5.30;;
19161;SDS011;9713;48.140;11.530;2024-03-22T09:50:42;9.73;;;5.30;;
19161;SDS011;9713;48.140;11.530;2024-03-22T09:54:24;7.17;;;4.80;;
19161;SDS011;9713;48.140;11.530;2024-03-22T09:58:05;6.50;;;4.67;;
19161;SDS011;9713;48.140;11.530;2024-03-22T10:01:47;10.77;;;5.00;;
19161;SDS011;9713;48.140;11.530;2024-03-22T10:05:29;6.53;;;4.53;;
19161;SDS011;9713;48.140;11.530;2024-03-22T10:09:13;6.87;;;5.13;;
19161;SDS011;9713;48.140;11.530;2024-03-22T10:12:55;9.70;;;4.97;;
19161;SDS011;9713;48.140;11.530;2024-03-22T10:16:37;13.30;;;7.03;;
19161;SDS011;9713;48.140;11.530;2024-03-22T10:20:19;10.60;;;6.20;;
19161;SDS011;9713;48.140;11.530;2024-03-22T10:24:00;8.80;;;5.10;;
19161;SDS011;9713;48.140;11.530;2024-03-22T10:27:43;7.77;;;4.80;;
19161;SDS011;9713;48.140;11.530;2024-03-22T10:31:25;10.73;;;5.70;;
19161;SDS011;9713;48.140;11.530;2024-03-22T10:35:08;7.97;;;5.10;;
19161;SDS011;9713;48.140;11.530;2024-03-22T10:38:54;11.30;;;5.00;;
19161;SDS011;9713;48.140;11.530;2024-03-22T10:42:38;10.03;;;5.53;;
19161;SDS011;9713;48.140;11.530;2024-03-22T10:46:22;8.83;;;5.27;;
19161;SDS011;9713;48.140;11.530;2024-03-22T10:50:11;9.57;;;5.13;;
19161;SDS011;9713;48.140;11.530;2024-03-22T10:53:54;7.57;;;4.73;;
19161;SDS011;9713;48.140;11.530;2024-03-22T10:57:36;7.53;;;4.83;;
19161;SDS011;9713;48.140;11.530;2024-03-22T11:01:24;10.40;;;5.50;;
19161;SDS011;9713;48.140;11.530;2024-03-22T11:05:07;11.13;;;4.90;;
19161;SDS011;9713;48.140;11.530;2024-03-22T11:08:59;7.30;;;5.07;;
19161;SDS011;9713;48.140;11.530;2024-03-22T11:12:41;10.30;;;4.90;;
19161;SDS011;9713;48.140;11.530;2024-03-22T11:16:25;12.93;;;5.50;;
19161;SDS011;9713;48.140;11.530;2024-03-22T11:20:07;8.73;;;4.80;;
19161;SDS011;9713;48.140;11.530;2024-03-22T11:23:52;7.67;;;5.40;;
19161;SDS011;9713;48.140;11.530;2024-03-22T11:27:34;6.70;;;4.80;;
19161;SDS011;9713;48.140;11.530;2024-03-22T11:31:15;10.37;;;5.63;;
19161;SDS011;9713;48.140;11.530;2024-03-22T11:34:58;6.70;;;5.10;;
19161;SDS011;9713;48.140;11.530;2024-03-22T11:38:39;7.17;;;5.13;;
19161;SDS011;9713;48.140;11.530;2024-03-22T11:42:21;7.47;;;4.97;;
19161;SDS011;9713;48.140;11.530;2024-03-22T11:46:02;6.93;;;4.60;;
19161;SDS011;9713;48.140;11.530;2024-03-22T11:49:45;8.03;;;5.17;;
19161;SDS011;9713;48.140;11.530;2024-03-22T11:53:28;9.83;;;5.77;;
19161;SDS011;9713;48.140;11.530;2024-03-22T11:57:10;9.23;;;5.60;;
19161;SDS011;9713;48.140;11.530;2024-03-22T12:00:52;8.57;;;5.17;;
19161;SDS011;9713;48.140;11.530;2024-03-22T12:04:34;7.20;;;5.53;;
19161;SDS011;9713;48.140;11.530;2024-03-22T12:08:16;9.27;;;5.10;;
19161;SDS011;9713;48.140;11.530;2024-03-22T12:11:59;7.73;;;5.57;;
19161;SDS011;9713;48.140;11.530;2024-03-22T12:15:41;8.47;;;5.17;;
19161;SDS011;9713;48.140;11.530;2024-03-22T12:19:23;8.97;;;5.17;;
19161;SDS011;9713;48.140;11.530;2024-03-22T12:23:05;9.17;;;5.60;;
19161;SDS011;9713;48.140;11.530;2024-03-22T12:26:47;8.37;;;5.47;;
19161;SDS011;9713;48.140;11.530;2024-03-22T12:30:31;9.07;;;5.60;;
19161;SDS011;9713;48.140;11.530;2024-03-22T12:34:14;7.60;;;4.90;;
19161;SDS011;9713;48.140;11.530;2024-03-22T12:37:56;7.07;;;5.00;;
19161;SDS011;9713;48.140;11.530;2024-03-22T12:41:38;6.77;;;4.10;;
19161;SDS011;9713;48.140;11.530;2024-03-22T12:45:19;8.37;;;4.80;;
19161;SDS011;9713;48.140;11.530;2024-03-22T12:49:02;7.73;;;4.83;;
19161;SDS011;9713;48.140;11.530;2024-03-22T12:52:44;12.00;;;5.93;;
19161;SDS011;9713;48.140;11.530;2024-03-22T12:56:27;11.73;;;5.30;;
19161;SDS011;9713;48.140;11.530;2024-03-22T13:00:09;8.57;;;4.80;;
19161;SDS011;9713;48.140;11.530;2024-03-22T13:03:55;9.00;;;4.80;;
19161;SDS011;9713;48.140;11.530;2024-03-22T13:07:38;5.33;;;4.10;;
19161;SDS011;9713;48.140;11.530;2024-03-22T13:11:20;5.10;;;3.80;;
19161;SDS011;9713;48.140;11.530;2024-03-22T13:15:02;5.97;;;3.97;;
19161;SDS011;9713;48.140;11.530;2024-03-22T13:18:45;6.38;;;4.07;;
19161;SDS011;9713;48.140;11.530;2024-03-22T13:22:26;6.17;;;3.70;;
19161;SDS011;9713;48.140;11.530;2024-03-22T13:26:09;6.13;;;3.70;;
19161;SDS011;9713;48.140;11.530;2024-03-22T13:29:51;6.23;;;3.37;;
19161;SDS011;9713;48.140;11.530;2024-03-22T13:33:34;4.07;;;2.95;;
19161;SDS011;9713;48.140;11.530;2024-03-22T13:37:16;6.87;;;3.63;;
19161;SDS011;9713;48.140;11.530;2024-03-22T13:40:58;4.97;;;2.90;;
19161;SDS011;9713;48.140;11.530;2024-03-22T13:44:42;4.43;;;2.70;;
19161;SDS011;9713;48.140;11.530;2024-03-22T13:48:24;4.20;;;3.00;;
19161;SDS011;9713;48.140;11.530;2024-03-22T13:52:06;4.47;;;3.17;;
19161;SDS011;9713;48.140;11.530;2024-03-22T13:55:48;4.67;;;3.20;;
19161;SDS011;9713;48.140;11.530;2024-03-22T13:59:29;4.90;;;2.85;;
19161;SDS011;9713;48.140;11.530;2024-03-22T14:03:13;4.38;;;2.40;;
19161;SDS011;9713;48.140;11.530;2024-03-22T14:06:54;3.97;;;3.07;;
19161;SDS011;9713;48.140;11.530;2024-03-22T14:10:36;5.95;;;2.80;;
19161;SDS011;9713;48.140;11.530;2024-03-22T14:14:18;3.35;;;2.50;;
19161;SDS011;9713;48.140;11.530;2024-03-22T14:18:00;4.40;;;2.72;;
19161;SDS011;9713;48.140;11.530;2024-03-22T14:21:44;4.60;;;3.30;;
19161;SDS011;9713;48.140;11.530;2024-03-22T14:25:27;5.13;;;2.53;;
19161;SDS011;9713;48.140;11.530;2024-03-22T14:29:09;3.78;;;2.10;;
19161;SDS011;9713;48.140;11.530;2024-03-22T14:32:52;3.17;;;1.83;;
19161;SDS011;9713;48.140;11.530;2024-03-22T14:36:34;4.35;;;1.77;;
19161;SDS011;9713;48.140;11.530;2024-03-22T14:40:17;2.42;;;1.83;;
19161;SDS011;9713;48.140;11.530;2024-03-22T14:43:59;3.45;;;1.80;;
19161;SDS011;9713;48.140;11.530;2024-03-22T14:47:41;2.63;;;1.50;;
19161;SDS011;9713;48.140;11.530;2024-03-22T14:51:24;2.15;;;1.20;;
19161;SDS011;9713;48.140;11.530;2024-03-22T14:55:06;2.42;;;1.00;;
19161;SDS011;9713;48.140;11.530;2024-03-22T14:58:51;1.60;;;1.30;;
19161;SDS011;9713;48.140;11.530;2024-03-22T15:02:33;1.88;;;1.30;;
19161;SDS011;9713;48.140;11.530;2024-03-22T15:06:15;3.33;;;2.20;;
19161;SDS011;9713;48.140;11.530;2024-03-22T15:09:57;3.75;;;1.88;;
19161;SDS011;9713;48.140;11.530;2024-03-22T15:13:39;3.70;;;1.60;;
19161;SDS011;9713;48.140;11.530;2024-03-22T15:17:22;2.20;;;1.40;;
19161;SDS011;9713;48.140;11.530;2024-03-22T15:21:04;2.13;;;1.73;;
19161;SDS011;9713;48.140;11.530;2024-03-22T15:24:46;2.60;;;1.60;;
19161;SDS011;9713;48.140;11.530;2024-03-22T15:28:28;2.30;;;1.55;;
19161;SDS011;9713;48.140;11.530;2024-03-22T15:32:09;3.28;;;1.30;;
19161;SDS011;9713;48.140;11.530;2024-03-22T15:35:53;1.45;;;1.17;;
19161;SDS011;9713;48.140;11.530;2024-03-22T15:39:35;3.03;;;1.30;;
19161;SDS011;9713;48.140;11.530;2024-03-22T15:43:16;2.35;;;1.40;;
19161;SDS011;9713;48.140;11.530;2024-03-22T15:46:58;1.05;;;0.93;;
19161;SDS011;9713;48.140;11.530;2024-03-22T15:50:42;2.10;;;1.30;;
19161;SDS011;9713;48.140;11.530;2024-03-22T15:54:24;1.83;;;1.20;;
19161;SDS011;9713;48.140;11.530;2024-03-22T15:58:06;1.70;;;1.00;;
19161;SDS011;9713;48.140;11.530;2024-03-22T16:01:49;2.42;;;1.27;;
19161;SDS011;9713;48.140;11.530;2024-03-22T16:05:31;1.25;;;0.90;;
19161;SDS011;9713;48.140;11.530;2024-03-22T16:09:16;1.55;;;1.10;;
19161;SDS011;9713;48.140;11.530;2024-03-22T16:12:59;1.23;;;0.90;;
19161;SDS011;9713;48.140;11.530;2024-03-22T16:16:43;1.90;;;0.90;;
19161;SDS011;9713;48.140;11.530;2024-03-22T16:20:25;1.73;;;1.00;;
19161;SDS011;9713;48.140;11.530;2024-03-22T16:24:07;2.83;;;1.30;;
19161;SDS011;9713;48.140;11.530;2024-03-22T16:27:50;1.70;;;1.00;;
19161;SDS011;9713;48.140;11.530;2024-03-22T16:31:34;1.35;;;1.13;;
19161;SDS011;9713;48.140;11.530;2024-03-22T16:35:16;2.08;;;1.25;;
19161;SDS011;9713;48.140;11.530;2024-03-22T16:38:58;3.28;;;1.40;;
19161;SDS011;9713;48.140;11.530;2024-03-22T16:42:44;2.13;;;1.30;;
19161;SDS011;9713;48.140;11.530;2024-03-22T16:46:27;3.10;;;1.60;;
19161;SDS011;9713;48.140;11.530;2024-03-22T16:50:11;2.28;;;1.20;;
19161;SDS011;9713;48.140;11.530;2024-03-22T16:53:54;3.65;;;1.27;;
19161;SDS011;9713;48.140;11.530;2024-03-22T16:57:37;4.53;;;1.42;;
19161;SDS011;9713;48.140;11.530;2024-03-22T17:01:19;2.65;;;1.20;;
19161;SDS011;9713;48.140;11.530;2024-03-22T17:05:05;4.22;;;1.20;;
19161;SDS011;9713;48.140;11.530;2024-03-22T17:08:51;3.03;;;1.63;;
19161;SDS011;9713;48.140;11.530;2024-03-22T17:12:35;2.70;;;1.50;;
19161;SDS011;9713;48.140;11.530;2024-03-22T17:16:16;2.90;;;1.40;;
19161;SDS011;9713;48.140;11.530;2024-03-22T17:19:58;5.57;;;1.50;;
19161;SDS011;9713;48.140;11.530;2024-03-22T17:23:40;3.28;;;1.77;;
19161;SDS011;9713;48.140;11.530;2024-03-22T17:27:23;5.20;;;2.00;;
19161;SDS011;9713;48.140;11.530;2024-03-22T17:31:05;3.50;;;1.60;;
19161;SDS011;9713;48.140;11.530;2024-03-22T17:34:47;3.10;;;2.00;;
19161;SDS011;9713;48.140;11.530;2024-03-22T17:38:29;3.87;;;2.00;;
19161;SDS011;9713;48.140;11.530;2024-03-22T17:42:11;2.57;;;1.80;;
19161;SDS011;9713;48.140;11.530;2024-03-22T17:45:57;4.50;;;1.70;;
19161;SDS011;9713;48.140;11.530;2024-03-22T17:49:39;3.37;;;1.97;;
19161;SDS011;9713;48.140;11.530;2024-03-22T17:53:21;3.10;;;2.07;;
19161;SDS011;9713;48.140;11.530;2024-03-22T17:57:03;3.27;;;2.00;;
19161;SDS011;9713;48.140;11.530;2024-03-22T18:00:45;5.83;;;2.70;;
19161;SDS011;9713;48.140;11.530;2024-03-22T18:04:28;8.07;;;3.87;;
19161;SDS011;9713;48.140;11.530;2024-03-22T18:08:10;8.27;;;4.37;;
19161;SDS011;9713;48.140;11.530;2024-03-22T18:11:52;5.77;;;2.73;;
19161;SDS011;9713;48.140;11.530;2024-03-22T18:15:34;7.03;;;2.47;;
19161;SDS011;9713;48.140;11.530;2024-03-22T18:19:17;5.67;;;2.80;;
19161;SDS011;9713;48.140;11.530;2024-03-22T18:23:00;4.67;;;2.20;;
19161;SDS011;9713;48.140;11.530;2024-03-22T18:26:42;3.17;;;2.33;;
19161;SDS011;9713;48.140;11.530;2024-03-22T18:30:24;4.77;;;2.93;;
19161;SDS011;9713;48.140;11.530;2024-03-22T18:34:06;5.27;;;3.13;;
19161;SDS011;9713;48.140;11.530;2024-03-22T18:37:47;5.70;;;2.63;;
19161;SDS011;9713;48.140;11.530;2024-03-22T18:41:31;4.10;;;3.10;;
19161;SDS011;9713;48.140;11.530;2024-03-22T18:45:13;6.17;;;3.50;;
19161;SDS011;9713;48.140;11.530;2024-03-22T18:48:54;7.30;;;4.07;;
19161;SDS011;9713;48.140;11.530;2024-03-22T18:52:36;4.53;;;2.83;;
19161;SDS011;9713;48.140;11.530;2024-03-22T18:56:19;7.87;;;3.70;;
19161;SDS011;9713;48.140;11.530;2024-03-22T19:00:03;4.97;;;3.10;;
19161;SDS011;9713;48.140;11.530;2024-03-22T19:03:46;4.83;;;3.20;;
19161;SDS011;9713;48.140;11.530;2024-03-22T19:07:28;6.57;;;3.50;;
19161;SDS011;9713;48.140;11.530;2024-03-22T19:11:10;7.40;;;3.90;;
19161;SDS011;9713;48.140;11.530;2024-03-22T19:14:52;9.10;;;3.80;;
19161;SDS011;9713;48.140;11.530;2024-03-22T19:18:35;6.70;;;3.70;;
19161;SDS011;9713;48.140;11.530;2024-03-22T19:22:17;8.93;;;3.97;;
19161;SDS011;9713;48.140;11.530;2024-03-22T19:25:59;10.73;;;4.30;;
19161;SDS011;9713;48.140;11.530;2024-03-22T19:29:41;6.20;;;3.37;;
19161;SDS011;9713;48.140;11.530;2024-03-22T19:33:24;6.97;;;3.67;;
19161;SDS011;9713;48.140;11.530;2024-03-22T19:37:07;7.30;;;3.50;;
19161;SDS011;9713;48.140;11.530;2024-03-22T19:40:49;6.90;;;3.93;;
19161;SDS011;9713;48.140;11.530;2024-03-22T19:44:31;6.57;;;4.03;;
19161;SDS011;9713;48.140;11.530;2024-03-22T19:48:14;7.23;;;3.73;;
19161;SDS011;9713;48.140;11.530;2024-03-22T19:51:56;6.93;;;3.33;;
19161;SDS011;9713;48.140;11.530;2024-03-22T19:55:39;8.10;;;3.50;;
19161;SDS011;9713;48.140;11.530;2024-03-22T19:59:21;7.80;;;3.43;;
19161;SDS011;9713;48.140;11.530;2024-03-22T20:03:03;5.67;;;3.43;;
19161;SDS011;9713;48.140;11.530;2024-03-22T20:06:45;7.10;;;3.93;;
19161;SDS011;9713;48.140;11.530;2024-03-22T20:10:29;12.03;;;4.40;;
19161;SDS011;9713;48.140;11.530;2024-03-22T20:14:13;6.53;;;3.73;;
19161;SDS011;9713;48.140;11.530;2024-03-22T20:17:55;9.43;;;4.03;;
19161;SDS011;9713;48.140;11.530;2024-03-22T20:21:38;6.73;;;3.70;;
19161;SDS011;9713;48.140;11.530;2024-03-22T20:25:22;6.27;;;3.67;;
19161;SDS011;9713;48.140;11.530;2024-03-22T20:29:05;5.43;;;3.60;;
19161;SDS011;9713;48.140;11.530;2024-03-22T20:32:49;6.13;;;3.10;;
19161;SDS011;9713;48.140;11.530;2024-03-22T20:36:31;6.43;;;3.37;;
